sensor_id;sensor_type;location;lat;lon;timestamp;pressure;altitude;pressure_sealevel;temperature;humidity
54854;BME280;40747;49.480;8.658;2023-04-04T00:00:10;101334.47;;;1.86;60.49
54854;BME280;40747;49.480;8.658;2023-04-04T00:02:38;101328.44;;;1.87;60.75
54854;BME280;40747;49.480;8.658;2023-04-04T00:05:04;101322.44;;;1.89;61.02
54854;BME280;40747;49.480;8.658;2023-04-04T00:07:30;101318.97;;;1.90;60.90
54854;BME280;40747;49.480;8.658;2023-04-04T00:09:55;101316.34;;;1.89;60.86
54854;BME280;40747;49.480;8.658;2023-04-04T00:12:20;101320.00;;;1.99;60.18
54854;BME280;40747;49.480;8.658;2023-04-04T00:14:47;101317.31;;;1.94;60.50
54854;BME280;40747;49.480;8.658;2023-04-04T00:17:12;101323.66;;;2.08;60.79
54854;BME280;40747;49.480;8.658;2023-04-04T00:19:37;101311.44;;;2.04;60.53
54854;BME280;40747;49.480;8.658;2023-04-04T00:22:02;101324.06;;;1.86;60.56
54854;BME280;40747;49.480;8.658;2023-04-04T00:24:28;101305.22;;;1.94;60.82
54854;BME280;40747;49.480;8.658;2023-04-04T00:26:54;101314.72;;;1.95;60.75
54854;BME280;40747;49.480;8.658;2023-04-04T00:29:20;101310.84;;;1.75;60.59
54854;BME280;40747;49.480;8.658;2023-04-04T00:31:45;101296.09;;;1.74;61.56
54854;BME280;40747;49.480;8.658;2023-04-04T00:34:10;101313.47;;;1.76;60.66
54854;BME280;40747;49.480;8.658;2023-04-04T00:36:36;101302.25;;;1.79;60.87
54854;BME280;40747;49.480;8.658;2023-04-04T00:39:01;101312.72;;;1.80;60.42
54854;BME280;40747;49.480;8.658;2023-04-04T00:41:26;101297.16;;;1.82;61.04
54854;BME280;40747;49.480;8.658;2023-04-04T00:43:53;101301.03;;;1.60;60.98
54854;BME280;40747;49.480;8.658;2023-04-04T00:46:19;101301.25;;;1.72;61.41
54854;BME280;40747;49.480;8.658;2023-04-04T00:48:46;101299.59;;;1.74;61.18
54854;BME280;40747;49.480;8.658;2023-04-04T00:51:12;101291.00;;;1.78;61.18
54854;BME280;40747;49.480;8.658;2023-04-04T00:53:37;101295.38;;;1.79;61.25
54854;BME280;40747;49.480;8.658;2023-04-04T00:56:03;101290.03;;;1.73;61.22
54854;BME280;40747;49.480;8.658;2023-04-04T00:58:28;101306.28;;;1.63;61.40
54854;BME280;40747;49.480;8.658;2023-04-04T01:00:54;101300.13;;;1.59;61.79
54854;BME280;40747;49.480;8.658;2023-04-04T01:03:20;101294.91;;;1.58;61.95
54854;BME280;40747;49.480;8.658;2023-04-04T01:05:45;101301.91;;;1.62;61.89
54854;BME280;40747;49.480;8.658;2023-04-04T01:08:11;101305.28;;;1.56;61.17
54854;BME280;40747;49.480;8.658;2023-04-04T01:10:38;101303.47;;;1.54;61.91
54854;BME280;40747;49.480;8.658;2023-04-04T01:13:03;101299.31;;;1.62;62.01
54854;BME280;40747;49.480;8.658;2023-04-04T01:15:29;101306.25;;;1.61;61.74
54854;BME280;40747;49.480;8.658;2023-04-04T01:17:57;101293.66;;;1.40;61.90
54854;BME280;40747;49.480;8.658;2023-04-04T01:20:25;101306.91;;;1.53;61.71
54854;BME280;40747;49.480;8.658;2023-04-04T01:22:52;101299.09;;;1.51;62.25
54854;BME280;40747;49.480;8.658;2023-04-04T01:25:37;101297.72;;;1.69;61.92
54854;BME280;40747;49.480;8.658;2023-04-04T01:28:02;101295.91;;;1.64;61.94
54854;BME280;40747;49.480;8.658;2023-04-04T01:30:31;101294.16;;;1.63;61.99
54854;BME280;40747;49.480;8.658;2023-04-04T01:38:10;101291.59;;;1.65;61.63
54854;BME280;40747;49.480;8.658;2023-04-04T01:40:40;101285.22;;;1.51;61.87
54854;BME280;40747;49.480;8.658;2023-04-04T01:43:06;101295.44;;;1.43;61.53
54854;BME280;40747;49.480;8.658;2023-04-04T01:45:32;101282.72;;;1.54;62.01
54854;BME280;40747;49.480;8.658;2023-04-04T01:47:58;101287.03;;;1.55;62.03
54854;BME280;40747;49.480;8.658;2023-04-04T01:50:24;101295.44;;;1.43;61.99
54854;BME280;40747;49.480;8.658;2023-04-04T01:52:50;101295.75;;;1.57;61.83
54854;BME280;40747;49.480;8.658;2023-04-04T01:55:16;101298.63;;;1.69;61.47
54854;BME280;40747;49.480;8.658;2023-04-04T01:57:41;101292.31;;;1.58;61.38
54854;BME280;40747;49.480;8.658;2023-04-04T02:00:07;101281.75;;;1.50;61.42
54854;BME280;40747;49.480;8.658;2023-04-04T02:02:32;101289.75;;;1.61;62.28
54854;BME280;40747;49.480;8.658;2023-04-04T02:04:58;101279.34;;;1.59;61.67
54854;BME280;40747;49.480;8.658;2023-04-04T02:07:23;101281.78;;;1.52;61.56
54854;BME280;40747;49.480;8.658;2023-04-04T02:09:48;101280.13;;;1.54;62.33
54854;BME280;40747;49.480;8.658;2023-04-04T02:12:14;101279.50;;;1.67;62.39
54854;BME280;40747;49.480;8.658;2023-04-04T02:14:39;101283.47;;;1.50;61.84
54854;BME280;40747;49.480;8.658;2023-04-04T02:17:05;101283.25;;;1.40;62.51
54854;BME280;40747;49.480;8.658;2023-04-04T02:19:30;101272.31;;;1.54;62.37
54854;BME280;40747;49.480;8.658;2023-04-04T02:21:56;101278.72;;;1.31;62.24
54854;BME280;40747;49.480;8.658;2023-04-04T02:24:21;101280.34;;;1.26;62.58
54854;BME280;40747;49.480;8.658;2023-04-04T02:26:46;101280.47;;;1.31;62.10
54854;BME280;40747;49.480;8.658;2023-04-04T02:29:12;101277.72;;;1.25;62.52
54854;BME280;40747;49.480;8.658;2023-04-04T02:31:37;101278.84;;;1.36;63.17
54854;BME280;40747;49.480;8.658;2023-04-04T02:34:03;101279.16;;;1.12;62.60
54854;BME280;40747;49.480;8.658;2023-04-04T02:36:28;101275.88;;;1.19;62.98
54854;BME280;40747;49.480;8.658;2023-04-04T02:38:53;101272.34;;;1.17;62.75
54854;BME280;40747;49.480;8.658;2023-04-04T02:41:19;101271.59;;;1.23;63.01
54854;BME280;40747;49.480;8.658;2023-04-04T02:43:44;101275.56;;;1.05;63.43
54854;BME280;40747;49.480;8.658;2023-04-04T02:46:10;101276.91;;;1.27;62.97
54854;BME280;40747;49.480;8.658;2023-04-04T02:48:35;101273.97;;;1.12;62.56
54854;BME280;40747;49.480;8.658;2023-04-04T02:51:01;101276.78;;;1.21;62.80
54854;BME280;40747;49.480;8.658;2023-04-04T02:53:27;101272.47;;;1.22;62.87
54854;BME280;40747;49.480;8.658;2023-04-04T02:55:52;101279.34;;;1.20;62.74
54854;BME280;40747;49.480;8.658;2023-04-04T02:58:17;101277.59;;;1.20;62.62
54854;BME280;40747;49.480;8.658;2023-04-04T03:00:43;101281.88;;;1.17;62.89
54854;BME280;40747;49.480;8.658;2023-04-04T03:03:08;101273.09;;;1.11;62.27
54854;BME280;40747;49.480;8.658;2023-04-04T03:05:33;101257.44;;;1.08;62.36
54854;BME280;40747;49.480;8.658;2023-04-04T03:07:59;101280.91;;;1.13;61.92
54854;BME280;40747;49.480;8.658;2023-04-04T03:10:27;101275.97;;;1.24;62.43
54854;BME280;40747;49.480;8.658;2023-04-04T03:12:54;101269.00;;;1.23;62.20
54854;BME280;40747;49.480;8.658;2023-04-04T03:15:19;101262.84;;;1.18;62.22
54854;BME280;40747;49.480;8.658;2023-04-04T03:17:45;101277.34;;;1.08;62.25
54854;BME280;40747;49.480;8.658;2023-04-04T03:20:12;101275.38;;;0.97;62.82
54854;BME280;40747;49.480;8.658;2023-04-04T03:22:39;101275.56;;;1.05;62.73
54854;BME280;40747;49.480;8.658;2023-04-04T03:25:04;101269.75;;;1.16;62.78
54854;BME280;40747;49.480;8.658;2023-04-04T03:27:30;101273.00;;;1.07;62.24
54854;BME280;40747;49.480;8.658;2023-04-04T03:29:56;101271.41;;;1.13;62.44
54854;BME280;40747;49.480;8.658;2023-04-04T03:32:22;101272.31;;;1.14;62.15
54854;BME280;40747;49.480;8.658;2023-04-04T03:34:47;101274.00;;;1.13;62.37
54854;BME280;40747;49.480;8.658;2023-04-04T03:37:12;101277.13;;;0.98;61.62
54854;BME280;40747;49.480;8.658;2023-04-04T03:39:37;101276.63;;;1.15;62.37
54854;BME280;40747;49.480;8.658;2023-04-04T03:42:03;101279.81;;;1.03;62.87
54854;BME280;40747;49.480;8.658;2023-04-04T03:44:28;101269.38;;;1.00;63.07
54854;BME280;40747;49.480;8.658;2023-04-04T03:46:53;101270.91;;;0.92;62.77
54854;BME280;40747;49.480;8.658;2023-04-04T03:49:19;101276.25;;;0.98;62.64
54854;BME280;40747;49.480;8.658;2023-04-04T03:51:44;101277.06;;;0.97;62.59
54854;BME280;40747;49.480;8.658;2023-04-04T03:54:10;101266.69;;;0.97;62.46
54854;BME280;40747;49.480;8.658;2023-04-04T03:56:35;101276.03;;;0.89;62.72
54854;BME280;40747;49.480;8.658;2023-04-04T03:59:00;101276.34;;;1.01;62.47
54854;BME280;40747;49.480;8.658;2023-04-04T04:01:26;101275.38;;;0.97;62.22
54854;BME280;40747;49.480;8.658;2023-04-04T04:03:51;101269.19;;;0.92;62.95
54854;BME280;40747;49.480;8.658;2023-04-04T04:06:16;101275.25;;;0.93;62.72
54854;BME280;40747;49.480;8.658;2023-04-04T04:08:42;101274.09;;;0.81;62.59
54854;BME280;40747;49.480;8.658;2023-04-04T04:11:07;101279.28;;;0.81;63.12
54854;BME280;40747;49.480;8.658;2023-04-04T04:13:33;101275.22;;;0.91;63.09
54854;BME280;40747;49.480;8.658;2023-04-04T04:16:00;101272.63;;;0.91;62.81
54854;BME280;40747;49.480;8.658;2023-04-04T04:18:25;101264.34;;;0.71;62.80
54854;BME280;40747;49.480;8.658;2023-04-04T04:20:56;101273.25;;;0.81;63.32
54854;BME280;40747;49.480;8.658;2023-04-04T04:23:21;101264.75;;;0.88;62.65
54854;BME280;40747;49.480;8.658;2023-04-04T04:25:46;101273.47;;;0.90;63.36
54854;BME280;40747;49.480;8.658;2023-04-04T04:28:12;101262.88;;;0.81;63.00
54854;BME280;40747;49.480;8.658;2023-04-04T04:30:38;101261.72;;;0.70;62.95
54854;BME280;40747;49.480;8.658;2023-04-04T04:33:03;101276.78;;;0.85;63.05
54854;BME280;40747;49.480;8.658;2023-04-04T04:35:28;101270.03;;;0.91;62.96
54854;BME280;40747;49.480;8.658;2023-04-04T04:37:54;101276.72;;;0.83;62.91
54854;BME280;40747;49.480;8.658;2023-04-04T04:40:19;101273.94;;;0.75;63.62
54854;BME280;40747;49.480;8.658;2023-04-04T04:42:45;101277.63;;;0.84;63.20
54854;BME280;40747;49.480;8.658;2023-04-04T04:45:10;101277.63;;;0.84;62.84
54854;BME280;40747;49.480;8.658;2023-04-04T04:47:36;101280.91;;;0.76;63.33
54854;BME280;40747;49.480;8.658;2023-04-04T04:50:02;101268.47;;;0.63;63.19
54854;BME280;40747;49.480;8.658;2023-04-04T04:52:28;101265.94;;;0.66;63.75
54854;BME280;40747;49.480;8.658;2023-04-04T04:54:55;101271.41;;;0.77;63.42
54854;BME280;40747;49.480;8.658;2023-04-04T04:57:21;101266.13;;;0.74;63.36
54854;BME280;40747;49.480;8.658;2023-04-04T04:59:47;101266.06;;;0.71;63.66
54854;BME280;40747;49.480;8.658;2023-04-04T05:02:12;101269.44;;;0.67;63.80
54854;BME280;40747;49.480;8.658;2023-04-04T05:04:37;101275.72;;;0.76;63.63
54854;BME280;40747;49.480;8.658;2023-04-04T05:07:03;101271.75;;;0.56;64.19
54854;BME280;40747;49.480;8.658;2023-04-04T05:09:28;101278.03;;;0.64;63.81
54854;BME280;40747;49.480;8.658;2023-04-04T05:11:54;101275.56;;;0.70;64.10
54854;BME280;40747;49.480;8.658;2023-04-04T05:14:19;101286.78;;;0.69;63.63
54854;BME280;40747;49.480;8.658;2023-04-04T05:16:44;101282.59;;;0.74;63.60
54854;BME280;40747;49.480;8.658;2023-04-04T05:19:09;101279.13;;;0.75;63.56
54854;BME280;40747;49.480;8.658;2023-04-04T05:21:35;101279.03;;;0.71;63.81
54854;BME280;40747;49.480;8.658;2023-04-04T05:24:00;101281.69;;;0.74;64.29
54854;BME280;40747;49.480;8.658;2023-04-04T05:26:26;101279.13;;;0.75;63.78
54854;BME280;40747;49.480;8.658;2023-04-04T05:28:53;101274.88;;;0.77;63.73
54854;BME280;40747;49.480;8.658;2023-04-04T05:31:18;101282.50;;;0.71;63.41
54854;BME280;40747;49.480;8.658;2023-04-04T05:33:43;101284.94;;;0.65;63.69
54854;BME280;40747;49.480;8.658;2023-04-04T05:36:09;101285.94;;;0.70;63.92
54854;BME280;40747;49.480;8.658;2023-04-04T05:38:37;101282.28;;;0.62;64.35
54854;BME280;40747;49.480;8.658;2023-04-04T05:41:03;101287.22;;;0.53;63.99
54854;BME280;40747;49.480;8.658;2023-04-04T05:43:28;101290.50;;;0.45;64.15
54854;BME280;40747;49.480;8.658;2023-04-04T05:45:53;101288.91;;;0.51;64.23
54854;BME280;40747;49.480;8.658;2023-04-04T05:48:19;101283.91;;;0.58;63.96
54854;BME280;40747;49.480;8.658;2023-04-04T05:50:44;101284.09;;;0.66;63.72
54854;BME280;40747;49.480;8.658;2023-04-04T05:53:11;101289.22;;;0.63;63.99
54854;BME280;40747;49.480;8.658;2023-04-04T05:55:36;101291.19;;;0.72;64.27
54854;BME280;40747;49.480;8.658;2023-04-04T05:58:01;101292.78;;;0.67;63.72
54854;BME280;40747;49.480;8.658;2023-04-04T06:00:26;101303.25;;;0.71;64.10
54854;BME280;40747;49.480;8.658;2023-04-04T06:02:55;101303.47;;;0.80;63.44
54854;BME280;40747;49.480;8.658;2023-04-04T06:05:22;101297.72;;;0.92;64.34
54854;BME280;40747;49.480;8.658;2023-04-04T06:07:47;101296.31;;;1.05;63.98
54854;BME280;40747;49.480;8.658;2023-04-04T06:10:13;101294.19;;;0.89;63.17
54854;BME280;40747;49.480;8.658;2023-04-04T06:12:38;101306.81;;;0.75;63.31
54854;BME280;40747;49.480;8.658;2023-04-04T06:15:04;101305.78;;;0.68;64.81
54854;BME280;40747;49.480;8.658;2023-04-04T06:17:29;101308.41;;;0.70;64.75
54854;BME280;40747;49.480;8.658;2023-04-04T06:19:54;101305.97;;;0.76;64.49
54854;BME280;40747;49.480;8.658;2023-04-04T06:22:20;101306.97;;;0.81;64.78
54854;BME280;40747;49.480;8.658;2023-04-04T06:24:46;101309.63;;;0.84;64.37
54854;BME280;40747;49.480;8.658;2023-04-04T06:27:11;101310.88;;;1.00;64.25
54854;BME280;40747;49.480;8.658;2023-04-04T06:29:36;101306.56;;;1.01;64.30
54854;BME280;40747;49.480;8.658;2023-04-04T06:32:02;101314.38;;;1.02;63.86
54854;BME280;40747;49.480;8.658;2023-04-04T06:34:29;101312.97;;;1.15;64.50
54854;BME280;40747;49.480;8.658;2023-04-04T06:36:54;101312.94;;;1.13;64.84
54854;BME280;40747;49.480;8.658;2023-04-04T06:39:20;101316.88;;;1.34;64.33
54854;BME280;40747;49.480;8.658;2023-04-04T06:41:45;101320.63;;;1.47;62.80
54854;BME280;40747;49.480;8.658;2023-04-04T06:44:12;101319.69;;;1.43;63.03
54854;BME280;40747;49.480;8.658;2023-04-04T06:46:37;101325.00;;;1.50;63.79
54854;BME280;40747;49.480;8.658;2023-04-04T06:49:03;101320.78;;;1.55;62.68
54854;BME280;40747;49.480;8.658;2023-04-04T06:51:29;101319.31;;;1.66;62.82
54854;BME280;40747;49.480;8.658;2023-04-04T06:53:55;101327.41;;;1.80;62.17
54854;BME280;40747;49.480;8.658;2023-04-04T06:56:21;101328.31;;;1.82;60.83
54854;BME280;40747;49.480;8.658;2023-04-04T06:58:47;101329.06;;;1.76;62.79
54854;BME280;40747;49.480;8.658;2023-04-04T07:01:12;101332.69;;;1.83;61.72
54854;BME280;40747;49.480;8.658;2023-04-04T07:03:37;101325.28;;;2.03;60.79
54854;BME280;40747;49.480;8.658;2023-04-04T07:06:03;101327.97;;;2.06;60.66
54854;BME280;40747;49.480;8.658;2023-04-04T07:08:29;101329.00;;;2.16;58.95
54854;BME280;40747;49.480;8.658;2023-04-04T07:10:55;101330.19;;;2.31;59.25
54854;BME280;40747;49.480;8.658;2023-04-04T07:13:20;101326.59;;;2.24;59.20
54854;BME280;40747;49.480;8.658;2023-04-04T07:15:45;101338.28;;;2.48;59.69
54854;BME280;40747;49.480;8.658;2023-04-04T07:18:15;101315.88;;;2.54;57.96
54854;BME280;40747;49.480;8.658;2023-04-04T07:20:40;101323.25;;;2.78;57.05
54854;BME280;40747;49.480;8.658;2023-04-04T07:23:06;101326.50;;;2.67;57.34
54854;BME280;40747;49.480;8.658;2023-04-04T07:25:31;101320.53;;;2.72;57.38
54854;BME280;40747;49.480;8.658;2023-04-04T07:27:56;101327.47;;;2.72;56.60
54854;BME280;40747;49.480;8.658;2023-04-04T07:30:22;101309.66;;;2.97;58.51
54854;BME280;40747;49.480;8.658;2023-04-04T07:32:58;101325.72;;;3.23;56.75
54854;BME280;40747;49.480;8.658;2023-04-04T07:35:23;101327.81;;;3.49;56.87
54854;BME280;40747;49.480;8.658;2023-04-04T07:37:49;101328.63;;;3.43;54.60
54854;BME280;40747;49.480;8.658;2023-04-04T07:40:14;101326.16;;;3.54;54.39
54854;BME280;40747;49.480;8.658;2023-04-04T07:42:47;101320.41;;;3.78;53.36
54854;BME280;40747;49.480;8.658;2023-04-04T07:45:16;101315.28;;;3.83;53.95
54854;BME280;40747;49.480;8.658;2023-04-04T07:47:43;101314.28;;;4.47;52.09
54854;BME280;40747;49.480;8.658;2023-04-04T07:50:09;101318.34;;;4.18;52.93
54854;BME280;40747;49.480;8.658;2023-04-04T07:52:34;101313.59;;;4.63;52.07
54854;BME280;40747;49.480;8.658;2023-04-04T07:54:59;101311.97;;;4.81;51.46
54854;BME280;40747;49.480;8.658;2023-04-04T07:57:25;101316.47;;;4.96;52.11
54854;BME280;40747;49.480;8.658;2023-04-04T07:59:50;101307.16;;;5.32;50.89
54854;BME280;40747;49.480;8.658;2023-04-04T08:02:16;101312.72;;;5.87;50.73
54854;BME280;40747;49.480;8.658;2023-04-04T08:04:41;101312.94;;;6.37;48.34
54854;BME280;40747;49.480;8.658;2023-04-04T08:07:06;101317.25;;;6.22;50.09
54854;BME280;40747;49.480;8.658;2023-04-04T08:09:32;101315.56;;;6.48;48.62
54854;BME280;40747;49.480;8.658;2023-04-04T08:12:00;101316.50;;;6.88;47.05
54854;BME280;40747;49.480;8.658;2023-04-04T08:14:26;101312.03;;;7.79;44.93
54854;BME280;40747;49.480;8.658;2023-04-04T08:16:52;101313.28;;;8.79;44.02
54854;BME280;40747;49.480;8.658;2023-04-04T08:19:17;101308.69;;;9.02;42.55
54854;BME280;40747;49.480;8.658;2023-04-04T08:21:43;101309.66;;;9.82;42.97
54854;BME280;40747;49.480;8.658;2023-04-04T08:24:10;101299.44;;;10.29;40.87
54854;BME280;40747;49.480;8.658;2023-04-04T08:26:35;101299.69;;;10.73;39.73
54854;BME280;40747;49.480;8.658;2023-04-04T08:29:01;101296.25;;;11.23;40.33
54854;BME280;40747;49.480;8.658;2023-04-04T08:31:26;101298.81;;;11.73;38.47
54854;BME280;40747;49.480;8.658;2023-04-04T08:33:55;101308.38;;;11.78;38.44
54854;BME280;40747;49.480;8.658;2023-04-04T08:36:20;101298.75;;;12.21;38.09
54854;BME280;40747;49.480;8.658;2023-04-04T08:38:46;101293.25;;;12.31;36.53
54854;BME280;40747;49.480;8.658;2023-04-04T08:41:12;101299.28;;;11.93;39.31
54854;BME280;40747;49.480;8.658;2023-04-04T08:43:40;101306.19;;;12.01;37.81
54854;BME280;40747;49.480;8.658;2023-04-04T08:46:08;101287.66;;;12.44;37.37
54854;BME280;40747;49.480;8.658;2023-04-04T08:48:35;101291.97;;;12.85;37.64
54854;BME280;40747;49.480;8.658;2023-04-04T08:51:02;101282.16;;;13.24;38.80
54854;BME280;40747;49.480;8.658;2023-04-04T08:53:28;101291.19;;;13.52;36.01
54854;BME280;40747;49.480;8.658;2023-04-04T08:55:54;101271.47;;;13.62;35.29
54854;BME280;40747;49.480;8.658;2023-04-04T08:58:22;101280.41;;;13.89;35.16
54854;BME280;40747;49.480;8.658;2023-04-04T09:00:47;101280.50;;;13.20;35.16
54854;BME280;40747;49.480;8.658;2023-04-04T09:03:21;101282.00;;;12.96;35.76
54854;BME280;40747;49.480;8.658;2023-04-04T09:05:48;101277.41;;;13.03;36.28
54854;BME280;40747;49.480;8.658;2023-04-04T09:08:15;101285.19;;;13.76;35.45
54854;BME280;40747;49.480;8.658;2023-04-04T09:10:42;101280.41;;;13.58;34.52
54854;BME280;40747;49.480;8.658;2023-04-04T09:13:08;101280.25;;;14.24;35.54
54854;BME280;40747;49.480;8.658;2023-04-04T09:15:35;101273.84;;;14.03;35.38
54854;BME280;40747;49.480;8.658;2023-04-04T09:18:03;101279.28;;;14.26;34.87
54854;BME280;40747;49.480;8.658;2023-04-04T09:20:42;101270.63;;;14.50;34.04
54854;BME280;40747;49.480;8.658;2023-04-04T09:23:13;101270.00;;;14.13;34.63
54854;BME280;40747;49.480;8.658;2023-04-04T09:25:47;101275.03;;;11.27;35.42
54854;BME280;40747;49.480;8.658;2023-04-04T09:28:14;101276.13;;;10.64;36.63
54854;BME280;40747;49.480;8.658;2023-04-04T09:30:40;101272.31;;;10.82;37.47
54854;BME280;40747;49.480;8.658;2023-04-04T09:33:08;101281.78;;;10.33;37.92
54854;BME280;40747;49.480;8.658;2023-04-04T09:35:36;101277.13;;;9.91;38.66
54854;BME280;40747;49.480;8.658;2023-04-04T09:38:02;101273.25;;;10.17;38.39
54854;BME280;40747;49.480;8.658;2023-04-04T09:40:28;101270.19;;;11.04;38.44
54854;BME280;40747;49.480;8.658;2023-04-04T09:42:54;101274.50;;;11.57;38.47
54854;BME280;40747;49.480;8.658;2023-04-04T09:45:23;101256.78;;;12.06;38.41
54854;BME280;40747;49.480;8.658;2023-04-04T09:47:50;101258.19;;;12.22;38.48
54854;BME280;40747;49.480;8.658;2023-04-04T09:50:20;101271.47;;;11.30;38.18
54854;BME280;40747;49.480;8.658;2023-04-04T09:52:50;101268.19;;;10.65;37.39
54854;BME280;40747;49.480;8.658;2023-04-04T09:55:16;101273.91;;;10.36;37.95
54854;BME280;40747;49.480;8.658;2023-04-04T09:57:42;101266.28;;;10.14;38.83
54854;BME280;40747;49.480;8.658;2023-04-04T10:00:08;101272.06;;;9.73;39.29
54854;BME280;40747;49.480;8.658;2023-04-04T10:02:37;101261.75;;;9.52;39.49
54854;BME280;40747;49.480;8.658;2023-04-04T10:05:03;101272.03;;;9.76;40.94
54854;BME280;40747;49.480;8.658;2023-04-04T10:07:29;101269.47;;;10.40;38.08
54854;BME280;40747;49.480;8.658;2023-04-04T10:09:56;101273.75;;;10.45;40.00
54854;BME280;40747;49.480;8.658;2023-04-04T10:12:23;101266.78;;;9.73;40.29
54854;BME280;40747;49.480;8.658;2023-04-04T10:14:59;101269.44;;;9.73;40.00
54854;BME280;40747;49.480;8.658;2023-04-04T10:17:38;101264.28;;;9.63;40.40
54854;BME280;40747;49.480;8.658;2023-04-04T10:20:05;101263.53;;;10.22;40.00
54854;BME280;40747;49.480;8.658;2023-04-04T10:22:34;101269.78;;;10.13;40.26
54854;BME280;40747;49.480;8.658;2023-04-04T10:25:00;101261.47;;;9.79;41.09
54854;BME280;40747;49.480;8.658;2023-04-04T10:27:25;101255.88;;;10.05;41.26
54854;BME280;40747;49.480;8.658;2023-04-04T10:29:51;101260.63;;;10.44;41.14
54854;BME280;40747;49.480;8.658;2023-04-04T10:32:22;101254.44;;;10.99;39.26
54854;BME280;40747;49.480;8.658;2023-04-04T10:34:56;101258.38;;;11.27;39.50
54854;BME280;40747;49.480;8.658;2023-04-04T10:37:27;101261.00;;;12.16;38.55
54854;BME280;40747;49.480;8.658;2023-04-04T10:40:08;101247.91;;;12.85;36.76
54854;BME280;40747;49.480;8.658;2023-04-04T10:42:39;101241.25;;;13.69;35.65
54854;BME280;40747;49.480;8.658;2023-04-04T10:45:07;101252.72;;;12.32;36.36
54854;BME280;40747;49.480;8.658;2023-04-04T10:47:34;101261.16;;;12.48;36.69
54854;BME280;40747;49.480;8.658;2023-04-04T10:50:03;101254.16;;;13.16;37.81
54854;BME280;40747;49.480;8.658;2023-04-04T10:52:32;101244.31;;;12.14;36.10
54854;BME280;40747;49.480;8.658;2023-04-04T10:55:00;101252.16;;;10.78;38.36
54854;BME280;40747;49.480;8.658;2023-04-04T10:57:27;101241.72;;;11.23;37.31
54854;BME280;40747;49.480;8.658;2023-04-04T11:00:08;101240.19;;;11.11;37.43
54854;BME280;40747;49.480;8.658;2023-04-04T11:02:59;101241.63;;;10.79;38.39
54854;BME280;40747;49.480;8.658;2023-04-04T11:05:33;101237.00;;;9.72;39.82
54854;BME280;40747;49.480;8.658;2023-04-04T11:08:05;101225.19;;;9.32;40.52
54854;BME280;40747;49.480;8.658;2023-04-04T11:10:40;101227.75;;;9.39;40.59
54854;BME280;40747;49.480;8.658;2023-04-04T11:13:16;101221.31;;;9.63;39.71
54854;BME280;40747;49.480;8.658;2023-04-04T11:16:06;101214.75;;;10.57;39.97
54854;BME280;40747;49.480;8.658;2023-04-04T11:21:05;101212.81;;;12.05;38.82
54854;BME280;40747;49.480;8.658;2023-04-04T11:26:34;101208.50;;;11.58;38.21
54854;BME280;40747;49.480;8.658;2023-04-04T11:29:04;101212.09;;;10.59;39.94
54854;BME280;40747;49.480;8.658;2023-04-04T11:31:33;101207.34;;;10.22;39.62
54854;BME280;40747;49.480;8.658;2023-04-04T11:34:06;101210.44;;;9.91;39.46
54854;BME280;40747;49.480;8.658;2023-04-04T11:39:03;101193.44;;;10.71;39.56
54854;BME280;40747;49.480;8.658;2023-04-04T11:42:12;101195.03;;;10.80;39.26
54854;BME280;40747;49.480;8.658;2023-04-04T11:45:00;101185.53;;;10.15;40.14
54854;BME280;40747;49.480;8.658;2023-04-04T11:47:27;101185.84;;;9.95;40.58
54854;BME280;40747;49.480;8.658;2023-04-04T11:49:54;101183.28;;;9.87;42.49
54854;BME280;40747;49.480;8.658;2023-04-04T11:52:19;101180.16;;;10.21;42.35
54854;BME280;40747;49.480;8.658;2023-04-04T11:54:46;101173.59;;;9.21;41.15
54854;BME280;40747;49.480;8.658;2023-04-04T11:57:21;101174.69;;;9.74;40.41
54854;BME280;40747;49.480;8.658;2023-04-04T11:59:48;101176.78;;;10.11;40.33
54854;BME280;40747;49.480;8.658;2023-04-04T12:02:18;101174.84;;;10.24;41.52
54854;BME280;40747;49.480;8.658;2023-04-04T12:04:44;101160.75;;;10.28;40.80
54854;BME280;40747;49.480;8.658;2023-04-04T12:07:11;101167.81;;;10.25;38.50
54854;BME280;40747;49.480;8.658;2023-04-04T12:09:38;101172.28;;;10.20;40.29
54854;BME280;40747;49.480;8.658;2023-04-04T12:12:04;101169.25;;;10.47;39.65
54854;BME280;40747;49.480;8.658;2023-04-04T12:14:32;101164.66;;;9.35;39.57
54854;BME280;40747;49.480;8.658;2023-04-04T12:16:57;101163.22;;;9.10;41.97
54854;BME280;40747;49.480;8.658;2023-04-04T12:19:24;101161.16;;;10.02;41.39
54854;BME280;40747;49.480;8.658;2023-04-04T12:21:52;101154.00;;;10.67;39.74
54854;BME280;40747;49.480;8.658;2023-04-04T12:24:18;101145.94;;;11.23;39.64
54854;BME280;40747;49.480;8.658;2023-04-04T12:26:45;101148.34;;;10.37;38.26
54854;BME280;40747;49.480;8.658;2023-04-04T12:29:12;101141.22;;;9.84;41.83
54854;BME280;40747;49.480;8.658;2023-04-04T12:31:40;101137.75;;;9.83;40.09
54854;BME280;40747;49.480;8.658;2023-04-04T12:34:13;101145.94;;;9.62;41.42
54854;BME280;40747;49.480;8.658;2023-04-04T12:36:39;101146.56;;;9.79;40.61
54854;BME280;40747;49.480;8.658;2023-04-04T12:39:07;101140.66;;;10.21;41.04
54854;BME280;40747;49.480;8.658;2023-04-04T12:41:34;101146.41;;;9.90;39.94
54854;BME280;40747;49.480;8.658;2023-04-04T12:44:01;101141.38;;;9.75;40.70
54854;BME280;40747;49.480;8.658;2023-04-04T12:46:27;101140.22;;;9.29;42.27
54854;BME280;40747;49.480;8.658;2023-04-04T12:48:52;101137.50;;;9.37;41.86
54854;BME280;40747;49.480;8.658;2023-04-04T12:51:18;101132.50;;;9.80;39.40
54854;BME280;40747;49.480;8.658;2023-04-04T12:53:51;101127.03;;;9.94;40.25
54854;BME280;40747;49.480;8.658;2023-04-04T12:56:25;101123.31;;;10.09;40.56
54854;BME280;40747;49.480;8.658;2023-04-04T12:58:51;101122.75;;;10.46;40.98
54854;BME280;40747;49.480;8.658;2023-04-04T13:01:16;101110.63;;;11.28;39.86
54854;BME280;40747;49.480;8.658;2023-04-04T13:03:45;101103.69;;;11.63;40.33
54854;BME280;40747;49.480;8.658;2023-04-04T13:06:15;101108.31;;;11.93;40.14
54854;BME280;40747;49.480;8.658;2023-04-04T13:08:54;101103.28;;;11.82;39.14